Aviation Digital Data Service (ADDS)

Output produced by METARs form (1122 UTC 07 July 2020)
found at http://www.aviationweather.gov/metar/data/
 
METAR text: ZGSZ 071100Z 17008MPS CAVOK 30/27 Q1008 NOSIG
Conditions at: ZGSZ (SHENZHEN , CN) observed 1100 UTC 07 July 2020
Temperature: 30.0°C (86°F)
Dewpoint: 27.0°C (81°F) [RH = 84%]
Pressure (altimeter): 29.76 inches Hg (1008.0 mb)
Winds: from the S (170 degrees) at 18 MPH (16 knots; 8.2 m/s)
Visibility: 6 or more miles (10+ km)
Ceiling: ceiling and visibility are OK
Clouds: unknown
Weather: no significant weather observed at this time

METAR text: ZGSZ 071000Z 17008MPS CAVOK 30/27 Q1008 NOSIG
Conditions at: ZGSZ (SHENZHEN , CN) observed 1000 UTC 07 July 2020
Temperature: 30.0°C (86°F)
Dewpoint: 27.0°C (81°F) [RH = 84%]
Pressure (altimeter): 29.76 inches Hg (1008.0 mb)
Winds: from the S (170 degrees) at 18 MPH (16 knots; 8.2 m/s)
Visibility: 6 or more miles (10+ km)
Ceiling: ceiling and visibility are OK
Clouds: unknown
Weather: no significant weather observed at this time

METAR text: ZGSZ 070900Z 17008MPS 9999 FEW020 31/27 Q1008 NOSIG
Conditions at: ZGSZ (SHENZHEN , CN) observed 0900 UTC 07 July 2020
Temperature: 31.0°C (88°F)
Dewpoint: 27.0°C (81°F) [RH = 79%]
Pressure (altimeter): 29.76 inches Hg (1008.0 mb)
Winds: from the S (170 degrees) at 18 MPH (16 knots; 8.2 m/s)
Visibility: 6 or more miles (10+ km)
Ceiling: at least 12,000 feet AGL
Clouds: few clouds at 2000 feet AGL
Weather: no significant weather observed at this time

METAR text: ZGSZ 070800Z 17009MPS 9999 FEW020 31/27 Q1008 NOSIG
Conditions at: ZGSZ (SHENZHEN , CN) observed 0800 UTC 07 July 2020
Temperature: 31.0°C (88°F)
Dewpoint: 27.0°C (81°F) [RH = 79%]
Pressure (altimeter): 29.76 inches Hg (1008.0 mb)
Winds: from the S (170 degrees) at 20 MPH (17 knots; 8.7 m/s)
Visibility: 6 or more miles (10+ km)
Ceiling: at least 12,000 feet AGL
Clouds: few clouds at 2000 feet AGL
Weather: no significant weather observed at this time

METAR text: ZGSZ 070700Z 17009MPS 9999 FEW020 FEW023TCU 31/27 Q1008 NOSIG
Conditions at: ZGSZ (SHENZHEN , CN) observed 0700 UTC 07 July 2020
Temperature: 31.0°C (88°F)
Dewpoint: 27.0°C (81°F) [RH = 79%]
Pressure (altimeter): 29.76 inches Hg (1008.0 mb)
Winds: from the S (170 degrees) at 20 MPH (17 knots; 8.7 m/s)
Visibility: 6 or more miles (10+ km)
Ceiling: at least 12,000 feet AGL
Clouds: few clouds at 2000 feet AGL
few clouds at 2300 feet AGL
Weather: no significant weather observed at this time

METAR text: ZGSZ 070600Z 16008MPS 9999 FEW020 FEW023TCU 30/26 Q1009 NOSIG
Conditions at: ZGSZ (SHENZHEN , CN) observed 0600 UTC 07 July 2020
Temperature: 30.0°C (86°F)
Dewpoint: 26.0°C (79°F) [RH = 79%]
Pressure (altimeter): 29.79 inches Hg (1009.0 mb)
Winds: from the SSE (160 degrees) at 18 MPH (16 knots; 8.2 m/s)
Visibility: 6 or more miles (10+ km)
Ceiling: at least 12,000 feet AGL
Clouds: few clouds at 2000 feet AGL
few clouds at 2300 feet AGL
Weather: no significant weather observed at this time

METAR text: ZGSZ 070500Z 18007MPS 9999 FEW020 32/27 Q1009 NOSIG
Conditions at: ZGSZ (SHENZHEN , CN) observed 0500 UTC 07 July 2020
Temperature: 32.0°C (90°F)
Dewpoint: 27.0°C (81°F) [RH = 75%]
Pressure (altimeter): 29.79 inches Hg (1009.0 mb)
Winds: from the S (180 degrees) at 16 MPH (14 knots; 7.2 m/s)
Visibility: 6 or more miles (10+ km)
Ceiling: at least 12,000 feet AGL
Clouds: few clouds at 2000 feet AGL
Weather: no significant weather observed at this time

METAR text: ZGSZ 070400Z 18007MPS 9999 BKN020 FEW030TCU 31/27 Q1010 NOSIG
Conditions at: ZGSZ (SHENZHEN , CN) observed 0400 UTC 07 July 2020
Temperature: 31.0°C (88°F)
Dewpoint: 27.0°C (81°F) [RH = 79%]
Pressure (altimeter): 29.82 inches Hg (1010.0 mb)
Winds: from the S (180 degrees) at 16 MPH (14 knots; 7.2 m/s)
Visibility: 6 or more miles (10+ km)
Ceiling: 2000 feet AGL
Clouds: broken clouds at 2000 feet AGL
few clouds at 3000 feet AGL
Weather: no significant weather observed at this time

METAR text: ZGSZ 070300Z 19003MPS 160V220 9999 SCT020 FEW023TCU 31/27 Q1010 NOSIG
Conditions at: ZGSZ (SHENZHEN , CN) observed 0300 UTC 07 July 2020
Temperature: 31.0°C (88°F)
Dewpoint: 27.0°C (81°F) [RH = 79%]
Pressure (altimeter): 29.82 inches Hg (1010.0 mb)
Winds: from the S (190 degrees) at 7 MPH (6 knots; 3.1 m/s)
Visibility: 6 or more miles (10+ km)
Ceiling: at least 12,000 feet AGL
Clouds: scattered clouds at 2000 feet AGL
few clouds at 2300 feet AGL
Weather: no significant weather observed at this time

METAR text: ZGSZ 070200Z 20004MPS 9999 FEW020 FEW023TCU 30/26 Q1010 NOSIG
Conditions at: ZGSZ (SHENZHEN , CN) observed 0200 UTC 07 July 2020
Temperature: 30.0°C (86°F)
Dewpoint: 26.0°C (79°F) [RH = 79%]
Pressure (altimeter): 29.82 inches Hg (1010.0 mb)
Winds: from the SSW (200 degrees) at 9 MPH (8 knots; 4.1 m/s)
Visibility: 6 or more miles (10+ km)
Ceiling: at least 12,000 feet AGL
Clouds: few clouds at 2000 feet AGL
few clouds at 2300 feet AGL
Weather: no significant weather observed at this time

METAR text: ZGSZ 070100Z 18005MPS 9999 SHRA BKN016 FEW023CB 30/27 Q1010 BECMG AT0120 NSW
Conditions at: ZGSZ (SHENZHEN , CN) observed 0100 UTC 07 July 2020
Temperature: 30.0°C (86°F)
Dewpoint: 27.0°C (81°F) [RH = 84%]
Pressure (altimeter): 29.82 inches Hg (1010.0 mb)
Winds: from the S (180 degrees) at 12 MPH (10 knots; 5.1 m/s)
Visibility: 6 or more miles (10+ km)
Ceiling: 1600 feet AGL
Clouds: broken clouds at 1600 feet AGL
few clouds at 2300 feet AGL
Weather: SHRA  (rain showers)

METAR text: ZGSZ 070000Z 18005MPS 9999 FEW020 30/27 Q1010 NOSIG
Conditions at: ZGSZ (SHENZHEN , CN) observed 0000 UTC 07 July 2020
Temperature: 30.0°C (86°F)
Dewpoint: 27.0°C (81°F) [RH = 84%]
Pressure (altimeter): 29.82 inches Hg (1010.0 mb)
Winds: from the S (180 degrees) at 12 MPH (10 knots; 5.1 m/s)
Visibility: 6 or more miles (10+ km)
Ceiling: at least 12,000 feet AGL
Clouds: few clouds at 2000 feet AGL
Weather: no significant weather observed at this time

METAR text: ZGSZ 062300Z 18005MPS 9999 FEW020 30/26 Q1010 NOSIG
Conditions at: ZGSZ (SHENZHEN , CN) observed 2300 UTC 06 July 2020
Temperature: 30.0°C (86°F)
Dewpoint: 26.0°C (79°F) [RH = 79%]
Pressure (altimeter): 29.82 inches Hg (1010.0 mb)
Winds: from the S (180 degrees) at 12 MPH (10 knots; 5.1 m/s)
Visibility: 6 or more miles (10+ km)
Ceiling: at least 12,000 feet AGL
Clouds: few clouds at 2000 feet AGL
Weather: no significant weather observed at this time

METAR text: ZGSZ 062200Z 19005MPS 9999 FEW020 29/27 Q1009 NOSIG
Conditions at: ZGSZ (SHENZHEN , CN) observed 2200 UTC 06 July 2020
Temperature: 29.0°C (84°F)
Dewpoint: 27.0°C (81°F) [RH = 89%]
Pressure (altimeter): 29.79 inches Hg (1009.0 mb)
Winds: from the S (190 degrees) at 12 MPH (10 knots; 5.1 m/s)
Visibility: 6 or more miles (10+ km)
Ceiling: at least 12,000 feet AGL
Clouds: few clouds at 2000 feet AGL
Weather: no significant weather observed at this time

METAR text: ZGSZ 062100Z 19005MPS 9999 FEW015 29/26 Q1009 NOSIG
Conditions at: ZGSZ (SHENZHEN , CN) observed 2100 UTC 06 July 2020
Temperature: 29.0°C (84°F)
Dewpoint: 26.0°C (79°F) [RH = 84%]
Pressure (altimeter): 29.79 inches Hg (1009.0 mb)
Winds: from the S (190 degrees) at 12 MPH (10 knots; 5.1 m/s)
Visibility: 6 or more miles (10+ km)
Ceiling: at least 12,000 feet AGL
Clouds: few clouds at 1500 feet AGL
Weather: no significant weather observed at this time

METAR text: ZGSZ 062000Z 18004MPS 9999 FEW015 29/27 Q1009 NOSIG
Conditions at: ZGSZ (SHENZHEN , CN) observed 2000 UTC 06 July 2020
Temperature: 29.0°C (84°F)
Dewpoint: 27.0°C (81°F) [RH = 89%]
Pressure (altimeter): 29.79 inches Hg (1009.0 mb)
Winds: from the S (180 degrees) at 9 MPH (8 knots; 4.1 m/s)
Visibility: 6 or more miles (10+ km)
Ceiling: at least 12,000 feet AGL
Clouds: few clouds at 1500 feet AGL
Weather: no significant weather observed at this time

METAR text: ZGSZ 061900Z 18006MPS 9999 FEW015 29/26 Q1008 NOSIG
Conditions at: ZGSZ (SHENZHEN , CN) observed 1900 UTC 06 July 2020
Temperature: 29.0°C (84°F)
Dewpoint: 26.0°C (79°F) [RH = 84%]
Pressure (altimeter): 29.76 inches Hg (1008.0 mb)
Winds: from the S (180 degrees) at 14 MPH (12 knots; 6.2 m/s)
Visibility: 6 or more miles (10+ km)
Ceiling: at least 12,000 feet AGL
Clouds: few clouds at 1500 feet AGL
Weather: no significant weather observed at this time

METAR text: ZGSZ 061800Z 18006MPS 9999 -SHRA SCT020 29/27 Q1008 NOSIG
Conditions at: ZGSZ (SHENZHEN , CN) observed 1800 UTC 06 July 2020
Temperature: 29.0°C (84°F)
Dewpoint: 27.0°C (81°F) [RH = 89%]
Pressure (altimeter): 29.76 inches Hg (1008.0 mb)
Winds: from the S (180 degrees) at 14 MPH (12 knots; 6.2 m/s)
Visibility: 6 or more miles (10+ km)
Ceiling: at least 12,000 feet AGL
Clouds: scattered clouds at 2000 feet AGL
Weather: -SHRA  (light rain showers)

METAR text: ZGSZ 061700Z 18006MPS 9999 SCT017 29/27 Q1008 NOSIG
Conditions at: ZGSZ (SHENZHEN , CN) observed 1700 UTC 06 July 2020
Temperature: 29.0°C (84°F)
Dewpoint: 27.0°C (81°F) [RH = 89%]
Pressure (altimeter): 29.76 inches Hg (1008.0 mb)
Winds: from the S (180 degrees) at 14 MPH (12 knots; 6.2 m/s)
Visibility: 6 or more miles (10+ km)
Ceiling: at least 12,000 feet AGL
Clouds: scattered clouds at 1700 feet AGL
Weather: no significant weather observed at this time

METAR text: ZGSZ 061600Z 17007MPS 9999 FEW017 29/27 Q1008 NOSIG
Conditions at: ZGSZ (SHENZHEN , CN) observed 1600 UTC 06 July 2020
Temperature: 29.0°C (84°F)
Dewpoint: 27.0°C (81°F) [RH = 89%]
Pressure (altimeter): 29.76 inches Hg (1008.0 mb)
Winds: from the S (170 degrees) at 16 MPH (14 knots; 7.2 m/s)
Visibility: 6 or more miles (10+ km)
Ceiling: at least 12,000 feet AGL
Clouds: few clouds at 1700 feet AGL
Weather: no significant weather observed at this time

METAR text: ZGSZ 061500Z 18006MPS 9999 FEW017 30/27 Q1008 NOSIG
Conditions at: ZGSZ (SHENZHEN , CN) observed 1500 UTC 06 July 2020
Temperature: 30.0°C (86°F)
Dewpoint: 27.0°C (81°F) [RH = 84%]
Pressure (altimeter): 29.76 inches Hg (1008.0 mb)
Winds: from the S (180 degrees) at 14 MPH (12 knots; 6.2 m/s)
Visibility: 6 or more miles (10+ km)
Ceiling: at least 12,000 feet AGL
Clouds: few clouds at 1700 feet AGL
Weather: no significant weather observed at this time

METAR text: ZGSZ 061400Z 18006MPS 9999 FEW020 30/27 Q1008 NOSIG
Conditions at: ZGSZ (SHENZHEN , CN) observed 1400 UTC 06 July 2020
Temperature: 30.0°C (86°F)
Dewpoint: 27.0°C (81°F) [RH = 84%]
Pressure (altimeter): 29.76 inches Hg (1008.0 mb)
Winds: from the S (180 degrees) at 14 MPH (12 knots; 6.2 m/s)
Visibility: 6 or more miles (10+ km)
Ceiling: at least 12,000 feet AGL
Clouds: few clouds at 2000 feet AGL
Weather: no significant weather observed at this time

METAR text: ZGSZ 061300Z 18007MPS 9999 FEW020 30/26 Q1007 NOSIG
Conditions at: ZGSZ (SHENZHEN , CN) observed 1300 UTC 06 July 2020
Temperature: 30.0°C (86°F)
Dewpoint: 26.0°C (79°F) [RH = 79%]
Pressure (altimeter): 29.73 inches Hg (1007.0 mb)
Winds: from the S (180 degrees) at 16 MPH (14 knots; 7.2 m/s)
Visibility: 6 or more miles (10+ km)
Ceiling: at least 12,000 feet AGL
Clouds: few clouds at 2000 feet AGL
Weather: no significant weather observed at this time

METAR text: ZGSZ 061200Z 18007MPS 9999 FEW020 30/27 Q1007 NOSIG
Conditions at: ZGSZ (SHENZHEN , CN) observed 1200 UTC 06 July 2020
Temperature: 30.0°C (86°F)
Dewpoint: 27.0°C (81°F) [RH = 84%]
Pressure (altimeter): 29.73 inches Hg (1007.0 mb)
Winds: from the S (180 degrees) at 16 MPH (14 knots; 7.2 m/s)
Visibility: 6 or more miles (10+ km)
Ceiling: at least 12,000 feet AGL
Clouds: few clouds at 2000 feet AGL
Weather: no significant weather observed at this time

METAR text: ZGSZ 061100Z 18009MPS 9999 FEW020 30/27 Q1006 NOSIG
Conditions at: ZGSZ (SHENZHEN , CN) observed 1100 UTC 06 July 2020
Temperature: 30.0°C (86°F)
Dewpoint: 27.0°C (81°F) [RH = 84%]
Pressure (altimeter): 29.70 inches Hg (1006.0 mb)
Winds: from the S (180 degrees) at 20 MPH (17 knots; 8.7 m/s)
Visibility: 6 or more miles (10+ km)
Ceiling: at least 12,000 feet AGL
Clouds: few clouds at 2000 feet AGL
Weather: no significant weather observed at this time

METAR text: ZGSZ 061000Z 17008MPS 9999 FEW020 30/27 Q1006 NOSIG
Conditions at: ZGSZ (SHENZHEN , CN) observed 1000 UTC 06 July 2020
Temperature: 30.0°C (86°F)
Dewpoint: 27.0°C (81°F) [RH = 84%]
Pressure (altimeter): 29.70 inches Hg (1006.0 mb)
Winds: from the S (170 degrees) at 18 MPH (16 knots; 8.2 m/s)
Visibility: 6 or more miles (10+ km)
Ceiling: at least 12,000 feet AGL
Clouds: few clouds at 2000 feet AGL
Weather: no significant weather observed at this time

METAR text: ZGSZ 060900Z 18008MPS 9999 FEW020 31/27 Q1006 NOSIG
Conditions at: ZGSZ (SHENZHEN , CN) observed 0900 UTC 06 July 2020
Temperature: 31.0°C (88°F)
Dewpoint: 27.0°C (81°F) [RH = 79%]
Pressure (altimeter): 29.70 inches Hg (1006.0 mb)
Winds: from the S (180 degrees) at 18 MPH (16 knots; 8.2 m/s)
Visibility: 6 or more miles (10+ km)
Ceiling: at least 12,000 feet AGL
Clouds: few clouds at 2000 feet AGL
Weather: no significant weather observed at this time

METAR text: ZGSZ 060800Z 17009MPS 9999 FEW020 FEW023TCU 31/26 Q1006 NOSIG
Conditions at: ZGSZ (SHENZHEN , CN) observed 0800 UTC 06 July 2020
Temperature: 31.0°C (88°F)
Dewpoint: 26.0°C (79°F) [RH = 75%]
Pressure (altimeter): 29.70 inches Hg (1006.0 mb)
Winds: from the S (170 degrees) at 20 MPH (17 knots; 8.7 m/s)
Visibility: 6 or more miles (10+ km)
Ceiling: at least 12,000 feet AGL
Clouds: few clouds at 2000 feet AGL
few clouds at 2300 feet AGL
Weather: no significant weather observed at this time

METAR text: ZGSZ 060700Z 17008MPS 9999 FEW020 FEW023TCU 31/27 Q1006 NOSIG
Conditions at: ZGSZ (SHENZHEN , CN) observed 0700 UTC 06 July 2020
Temperature: 31.0°C (88°F)
Dewpoint: 27.0°C (81°F) [RH = 79%]
Pressure (altimeter): 29.70 inches Hg (1006.0 mb)
Winds: from the S (170 degrees) at 18 MPH (16 knots; 8.2 m/s)
Visibility: 6 or more miles (10+ km)
Ceiling: at least 12,000 feet AGL
Clouds: few clouds at 2000 feet AGL
few clouds at 2300 feet AGL
Weather: no significant weather observed at this time

METAR text: ZGSZ 060600Z 17008MPS 9999 FEW027 32/26 Q1007 NOSIG
Conditions at: ZGSZ (SHENZHEN , CN) observed 0600 UTC 06 July 2020
Temperature: 32.0°C (90°F)
Dewpoint: 26.0°C (79°F) [RH = 71%]
Pressure (altimeter): 29.73 inches Hg (1007.0 mb)
Winds: from the S (170 degrees) at 18 MPH (16 knots; 8.2 m/s)
Visibility: 6 or more miles (10+ km)
Ceiling: at least 12,000 feet AGL
Clouds: few clouds at 2700 feet AGL
Weather: no significant weather observed at this time

METAR text: ZGSZ 060500Z 17008MPS 9999 FEW027 32/27 Q1007 NOSIG
Conditions at: ZGSZ (SHENZHEN , CN) observed 0500 UTC 06 July 2020
Temperature: 32.0°C (90°F)
Dewpoint: 27.0°C (81°F) [RH = 75%]
Pressure (altimeter): 29.73 inches Hg (1007.0 mb)
Winds: from the S (170 degrees) at 18 MPH (16 knots; 8.2 m/s)
Visibility: 6 or more miles (10+ km)
Ceiling: at least 12,000 feet AGL
Clouds: few clouds at 2700 feet AGL
Weather: no significant weather observed at this time

METAR text: ZGSZ 060400Z 17008MPS 9999 FEW027 31/26 Q1007 NOSIG
Conditions at: ZGSZ (SHENZHEN , CN) observed 0400 UTC 06 July 2020
Temperature: 31.0°C (88°F)
Dewpoint: 26.0°C (79°F) [RH = 75%]
Pressure (altimeter): 29.73 inches Hg (1007.0 mb)
Winds: from the S (170 degrees) at 18 MPH (16 knots; 8.2 m/s)
Visibility: 6 or more miles (10+ km)
Ceiling: at least 12,000 feet AGL
Clouds: few clouds at 2700 feet AGL
Weather: no significant weather observed at this time

METAR text: ZGSZ 060300Z 17007MPS 9999 SCT027 31/27 Q1007 NOSIG
Conditions at: ZGSZ (SHENZHEN , CN) observed 0300 UTC 06 July 2020
Temperature: 31.0°C (88°F)
Dewpoint: 27.0°C (81°F) [RH = 79%]
Pressure (altimeter): 29.73 inches Hg (1007.0 mb)
Winds: from the S (170 degrees) at 16 MPH (14 knots; 7.2 m/s)
Visibility: 6 or more miles (10+ km)
Ceiling: at least 12,000 feet AGL
Clouds: scattered clouds at 2700 feet AGL
Weather: no significant weather observed at this time

METAR text: ZGSZ 060200Z 18005MPS 9999 FEW023 31/27 Q1008 NOSIG
Conditions at: ZGSZ (SHENZHEN , CN) observed 0200 UTC 06 July 2020
Temperature: 31.0°C (88°F)
Dewpoint: 27.0°C (81°F) [RH = 79%]
Pressure (altimeter): 29.76 inches Hg (1008.0 mb)
Winds: from the S (180 degrees) at 12 MPH (10 knots; 5.1 m/s)
Visibility: 6 or more miles (10+ km)
Ceiling: at least 12,000 feet AGL
Clouds: few clouds at 2300 feet AGL
Weather: no significant weather observed at this time

METAR text: ZGSZ 060100Z 18005MPS 9999 FEW023 31/26 Q1008 NOSIG
Conditions at: ZGSZ (SHENZHEN , CN) observed 0100 UTC 06 July 2020
Temperature: 31.0°C (88°F)
Dewpoint: 26.0°C (79°F) [RH = 75%]
Pressure (altimeter): 29.76 inches Hg (1008.0 mb)
Winds: from the S (180 degrees) at 12 MPH (10 knots; 5.1 m/s)
Visibility: 6 or more miles (10+ km)
Ceiling: at least 12,000 feet AGL
Clouds: few clouds at 2300 feet AGL
Weather: no significant weather observed at this time

METAR text: ZGSZ 060000Z 18005MPS 9999 FEW023 30/26 Q1008 NOSIG
Conditions at: ZGSZ (SHENZHEN , CN) observed 0000 UTC 06 July 2020
Temperature: 30.0°C (86°F)
Dewpoint: 26.0°C (79°F) [RH = 79%]
Pressure (altimeter): 29.76 inches Hg (1008.0 mb)
Winds: from the S (180 degrees) at 12 MPH (10 knots; 5.1 m/s)
Visibility: 6 or more miles (10+ km)
Ceiling: at least 12,000 feet AGL
Clouds: few clouds at 2300 feet AGL
Weather: no significant weather observed at this time

Forecast for: ZGSZ (SHENZHEN , CN)
Text: TAF ZGSZ 070902Z 0712/0812 18006MPS 8000 FEW020 TX32/0806Z TN29/0722Z
Forecast period: 1200 UTC 07 July 2020 to 1200 UTC 08 July 2020
Forecast type: FROM: standard forecast or significant change
Winds: from the S (180 degrees) at 14 MPH (12 knots; 6.2 m/s)
Visibility: 5 miles (8 km)
Ceiling: at least 12,000 feet AGL
Clouds: few clouds at 2000 feet AGL
Weather: no significant weather forecast for this period
Text: TEMPO 0720/0802 SHRA SCT020 FEW025CB
Forecast period: 2000 UTC 07 July 2020 to 0200 UTC 08 July 2020
Forecast type: TEMPORARY: The following changes expected for less than half the time period
Visibility: missing
Ceiling: at least 12,000 feet AGL
Clouds: scattered clouds at 2000 feet AGL
few clouds at 2500 feet AGL
Weather: SHRA  (rain showers)
Text: TEMPO 0806/0810 SHRA SCT020 FEW025CB
Forecast period: 0600 to 1000 UTC 08 July 2020
Forecast type: TEMPORARY: The following changes expected for less than half the time period
Visibility: missing
Ceiling: at least 12,000 feet AGL
Clouds: scattered clouds at 2000 feet AGL
few clouds at 2500 feet AGL
Weather: SHRA  (rain showers)